createdAt,value
2018-03-19T00:01:03.144Z,6.60
2018-03-19T00:03:30.687Z,6.35
2018-03-19T00:05:58.207Z,5.75
2018-03-19T00:08:25.732Z,6.55
2018-03-19T00:10:53.245Z,5.82
2018-03-19T00:13:20.781Z,6.20
2018-03-19T00:15:48.312Z,5.70
2018-03-19T00:18:16.437Z,5.75
2018-03-19T00:20:43.948Z,6.95
2018-03-19T00:23:11.468Z,6.95
2018-03-19T00:25:38.977Z,5.80
2018-03-19T00:28:06.828Z,5.82
2018-03-19T00:30:34.365Z,5.50
2018-03-19T00:33:01.873Z,5.60
2018-03-19T00:35:29.384Z,6.25
2018-03-19T00:37:56.915Z,4.75
2018-03-19T00:40:24.447Z,5.65
2018-03-19T00:42:51.758Z,4.70
2018-03-19T00:45:19.287Z,5.75
2018-03-19T00:47:46.795Z,6.25
2018-03-19T00:50:14.334Z,5.78
2018-03-19T00:52:41.871Z,7.05
2018-03-19T00:55:09.398Z,6.12
2018-03-19T00:57:36.922Z,6.00
2018-03-19T01:00:04.103Z,6.15
2018-03-19T01:02:31.610Z,6.40
2018-03-19T01:04:59.152Z,5.93
2018-03-19T01:07:27.493Z,6.97
2018-03-19T01:09:55.027Z,5.82
2018-03-19T01:12:22.549Z,6.43
2018-03-19T01:14:50.066Z,6.05
2018-03-19T01:17:17.593Z,6.22
2018-03-19T01:19:45.128Z,6.37
2018-03-19T01:22:12.645Z,6.25
2018-03-19T01:24:40.150Z,6.00
2018-03-19T01:27:07.661Z,5.80
2018-03-19T01:29:35.219Z,6.93
2018-03-19T01:32:02.741Z,6.68
2018-03-19T01:34:30.278Z,6.60
2018-03-19T01:36:57.805Z,6.18
2018-03-19T01:39:25.330Z,6.50
2018-03-19T01:41:52.850Z,6.03
2018-03-19T01:44:20.396Z,5.78
2018-03-19T01:46:47.925Z,6.18
2018-03-19T01:49:15.455Z,6.32
2018-03-19T01:51:42.980Z,6.15
2018-03-19T01:54:11.153Z,7.12
2018-03-19T01:56:40.305Z,6.65
2018-03-19T01:59:08.691Z,5.32
2018-03-19T02:01:39.834Z,6.00
2018-03-19T02:04:07.351Z,7.53
2018-03-19T02:06:34.879Z,5.60
2018-03-19T02:09:02.214Z,6.65
2018-03-19T02:11:29.725Z,6.45
2018-03-19T02:13:57.252Z,5.93
2018-03-19T02:16:24.765Z,6.22
2018-03-19T02:18:52.312Z,5.07
2018-03-19T02:21:19.806Z,6.18
2018-03-19T02:23:47.338Z,6.55
2018-03-19T02:26:14.859Z,6.70
2018-03-19T02:28:42.376Z,6.72
2018-03-19T02:31:09.902Z,6.18
2018-03-19T02:33:37.403Z,5.78
2018-03-19T02:36:04.939Z,6.93
2018-03-19T02:38:32.458Z,6.20
2018-03-19T02:40:59.975Z,6.07
2018-03-19T02:43:27.504Z,6.00
2018-03-19T02:45:55.018Z,5.93
2018-03-19T02:48:22.552Z,8.15
2018-03-19T02:50:50.089Z,6.28
2018-03-19T02:53:17.625Z,6.32
2018-03-19T02:55:45.151Z,6.78
2018-03-19T02:58:12.699Z,7.20
2018-03-19T03:00:40.218Z,6.10
2018-03-19T03:03:07.776Z,6.78
2018-03-19T03:05:35.334Z,6.80
2018-03-19T03:08:02.852Z,6.53
2018-03-19T03:10:30.366Z,7.40
2018-03-19T03:12:58.758Z,6.82
2018-03-19T03:15:26.289Z,7.12
2018-03-19T03:17:53.846Z,6.40
2018-03-19T03:20:22.236Z,7.15
2018-03-19T03:22:49.915Z,5.97
2018-03-19T03:25:17.431Z,7.20
2018-03-19T03:27:44.945Z,6.75
2018-03-19T03:30:12.475Z,7.75
2018-03-19T03:32:40.008Z,6.62
2018-03-19T03:35:07.594Z,7.10
2018-03-19T03:37:35.226Z,7.93
2018-03-19T03:40:02.756Z,8.82
2018-03-19T03:42:30.275Z,7.03
2018-03-19T03:44:57.771Z,8.60
2018-03-19T03:47:25.280Z,7.57
2018-03-19T03:49:52.814Z,7.78
2018-03-19T03:52:20.343Z,7.18
2018-03-19T03:54:47.888Z,7.70
2018-03-19T03:57:15.416Z,6.68
2018-03-19T03:59:42.944Z,7.70
2018-03-19T04:02:10.444Z,7.18
2018-03-19T04:04:37.963Z,7.50
2018-03-19T04:07:05.483Z,7.55
2018-03-19T04:09:32.998Z,8.40
2018-03-19T04:12:00.524Z,7.55
2018-03-19T04:14:28.053Z,7.30
2018-03-19T04:16:55.565Z,8.25
2018-03-19T04:19:23.087Z,8.00
2018-03-19T04:21:50.598Z,7.18
2018-03-19T04:24:18.142Z,8.13
2018-03-19T04:26:45.824Z,9.05
2018-03-19T04:29:13.350Z,7.32
2018-03-19T04:31:41.935Z,7.18
2018-03-19T04:34:09.959Z,7.45
2018-03-19T04:36:37.459Z,8.43
2018-03-19T04:39:05.437Z,8.23
2018-03-19T04:41:32.944Z,8.10
2018-03-19T04:44:00.464Z,8.75
2018-03-19T04:46:28.225Z,7.82
2018-03-19T04:48:56.277Z,8.40
2018-03-19T04:51:24.531Z,8.52
2018-03-19T04:53:51.741Z,8.98
2018-03-19T04:56:19.967Z,8.10
2018-03-19T04:58:48.406Z,8.18
2018-03-19T05:01:15.915Z,8.20
2018-03-19T05:03:43.432Z,8.35
2018-03-19T05:06:10.962Z,9.07
2018-03-19T05:08:38.457Z,7.53
2018-03-19T05:11:05.989Z,7.75
2018-03-19T05:13:33.496Z,6.47
2018-03-19T05:16:01.039Z,7.35
2018-03-19T05:18:28.711Z,8.50
2018-03-19T05:20:56.213Z,8.25
2018-03-19T05:23:23.722Z,8.55
2018-03-19T05:25:51.240Z,7.37
2018-03-19T05:28:19.353Z,8.63
2018-03-19T05:30:46.857Z,9.50
2018-03-19T05:33:14.381Z,10.27
2018-03-19T05:35:41.908Z,8.82
2018-03-19T05:38:09.440Z,8.70
2018-03-19T05:40:36.959Z,8.30
2018-03-19T05:43:04.475Z,8.00
2018-03-19T05:45:32.005Z,7.20
2018-03-19T05:47:59.555Z,13.27
2018-03-19T05:50:27.461Z,16.50
2018-03-19T05:52:54.799Z,9.65
2018-03-19T05:55:22.333Z,8.68
2018-03-19T05:57:49.876Z,8.30
2018-03-19T06:00:17.593Z,7.72
2018-03-19T06:02:45.133Z,7.82
2018-03-19T06:05:12.647Z,8.38
2018-03-19T06:07:40.169Z,7.93
2018-03-19T06:10:07.793Z,7.85
2018-03-19T06:12:35.369Z,8.05
2018-03-19T06:15:02.892Z,8.95
2018-03-19T06:17:30.489Z,9.45
2018-03-19T06:19:58.000Z,8.38
2018-03-19T06:22:25.513Z,23.08
2018-03-19T06:24:53.136Z,7.65
2018-03-19T06:27:20.644Z,18.83
2018-03-19T06:29:48.157Z,8.80
2018-03-19T06:32:15.685Z,9.05
2018-03-19T06:34:43.198Z,40.38
2018-03-19T06:37:10.734Z,9.02
2018-03-19T06:39:38.252Z,10.05
2018-03-19T06:42:05.770Z,33.80
2018-03-19T06:44:33.300Z,11.38
2018-03-19T06:47:01.456Z,7.95
2018-03-19T06:49:28.964Z,55.67
2018-03-19T06:51:56.484Z,11.73
2018-03-19T06:54:23.993Z,9.77
2018-03-19T06:56:51.514Z,11.00
2018-03-19T06:59:19.051Z,8.82
2018-03-19T07:01:46.578Z,7.80
2018-03-19T07:04:14.120Z,9.50
2018-03-19T07:06:41.632Z,10.30
2018-03-19T07:09:09.134Z,8.65
2018-03-19T07:11:36.705Z,9.10
2018-03-19T07:14:04.235Z,7.87
2018-03-19T07:16:31.751Z,8.50
2018-03-19T07:18:59.261Z,8.98
2018-03-19T07:21:26.768Z,8.55
2018-03-19T07:23:54.292Z,8.10
2018-03-19T07:26:21.814Z,9.48
2018-03-19T07:31:31.172Z,10.18
2018-03-19T07:33:58.682Z,8.55
2018-03-19T07:36:26.257Z,8.10
2018-03-19T07:38:53.785Z,10.00
2018-03-19T07:41:21.317Z,9.63
2018-03-19T07:43:48.837Z,8.27
2018-03-19T07:46:16.349Z,7.95
2018-03-19T07:48:43.868Z,8.05
2018-03-19T07:51:11.414Z,9.60
2018-03-19T07:53:38.927Z,8.18
2018-03-19T07:56:06.444Z,9.93
2018-03-19T07:58:33.984Z,8.55
2018-03-19T08:01:01.502Z,7.72
2018-03-19T08:03:29.007Z,8.10
2018-03-19T08:05:56.522Z,7.97
2018-03-19T08:08:24.050Z,8.35
2018-03-19T08:10:51.558Z,8.13
2018-03-19T08:13:19.094Z,7.57
2018-03-19T08:15:46.593Z,8.18
2018-03-19T08:18:15.241Z,8.60
2018-03-19T08:20:42.754Z,8.18
2018-03-19T08:23:10.519Z,9.48
2018-03-19T08:25:38.754Z,7.97
2018-03-19T08:28:06.302Z,7.87
2018-03-19T08:30:33.845Z,7.50
2018-03-19T08:33:01.520Z,8.60
2018-03-19T08:35:29.016Z,7.60
2018-03-19T08:37:56.555Z,8.98
2018-03-19T08:40:24.224Z,7.87
2018-03-19T08:42:51.739Z,11.55
2018-03-19T08:45:19.279Z,8.57
2018-03-19T08:47:46.803Z,7.50
2018-03-19T08:50:15.180Z,8.27
2018-03-19T08:52:42.704Z,9.05
2018-03-19T08:55:10.287Z,8.30
2018-03-19T08:57:37.892Z,9.13
2018-03-19T09:00:05.077Z,17.05
2018-03-19T09:02:32.599Z,9.82
2018-03-19T09:05:00.117Z,8.35
2018-03-19T09:07:27.625Z,7.40
2018-03-19T09:09:55.145Z,7.10
2018-03-19T09:12:22.656Z,8.43
2018-03-19T09:14:50.198Z,8.35
2018-03-19T09:17:17.723Z,7.47
2018-03-19T09:19:45.269Z,7.60
2018-03-19T09:22:12.923Z,8.82
2018-03-19T09:24:40.429Z,8.45
2018-03-19T09:27:08.018Z,8.00
2018-03-19T09:29:35.523Z,8.25
2018-03-19T09:32:02.843Z,7.78
2018-03-19T09:34:30.398Z,7.40
2018-03-19T09:36:57.920Z,8.90
2018-03-19T09:39:25.468Z,7.57
2018-03-19T09:41:53.161Z,7.05
2018-03-19T09:44:20.682Z,8.73
2018-03-19T09:46:48.192Z,8.13
2018-03-19T09:49:15.705Z,7.55
2018-03-19T09:51:43.231Z,8.75
2018-03-19T09:54:10.733Z,7.45
2018-03-19T09:56:38.248Z,8.02
2018-03-19T09:59:05.793Z,7.43
2018-03-19T10:01:33.306Z,8.70
2018-03-19T10:04:01.120Z,9.27
2018-03-19T10:06:28.649Z,6.95
2018-03-19T10:08:56.169Z,6.90
2018-03-19T10:11:23.672Z,9.23
2018-03-19T10:13:51.189Z,8.48
2018-03-19T10:16:18.724Z,7.65
2018-03-19T10:18:46.404Z,8.73
2018-03-19T10:21:13.931Z,7.80
2018-03-19T10:23:41.460Z,8.75
2018-03-19T10:26:08.972Z,7.43
2018-03-19T10:28:36.501Z,8.27
2018-03-19T10:31:04.031Z,8.82
2018-03-19T10:33:31.354Z,7.32
2018-03-19T10:35:58.884Z,9.13
2018-03-19T10:38:26.396Z,10.02
2018-03-19T10:40:53.918Z,8.80
2018-03-19T10:43:21.459Z,9.05
2018-03-19T10:45:49.644Z,8.60
2018-03-19T10:48:17.313Z,7.82
2018-03-19T10:50:44.839Z,8.50
2018-03-19T10:53:12.368Z,8.57
2018-03-19T10:55:39.879Z,8.95
2018-03-19T10:58:07.390Z,8.27
2018-03-19T11:00:34.912Z,8.60
2018-03-19T11:03:06.577Z,9.35
2018-03-19T11:05:39.609Z,8.15
2018-03-19T11:08:07.718Z,9.10
2018-03-19T11:10:35.249Z,10.85
2018-03-19T11:13:02.761Z,9.07
2018-03-19T11:15:31.721Z,9.07
2018-03-19T11:17:59.231Z,8.88
2018-03-19T11:20:26.757Z,7.85
2018-03-19T11:22:54.281Z,9.63
2018-03-19T11:25:21.798Z,11.95
2018-03-19T11:27:49.329Z,9.98
2018-03-19T11:30:16.837Z,11.45
2018-03-19T11:32:44.386Z,8.48
2018-03-19T11:35:11.910Z,8.05
2018-03-19T11:37:39.432Z,7.62
2018-03-19T11:40:07.086Z,9.27
2018-03-19T11:42:34.613Z,9.35
2018-03-19T11:45:02.147Z,9.15
2018-03-19T11:47:29.669Z,8.93
2018-03-19T11:49:57.013Z,9.45
2018-03-19T11:52:24.536Z,11.05
2018-03-19T11:54:52.055Z,9.10
2018-03-19T11:57:19.601Z,9.52
2018-03-19T11:59:47.106Z,8.15
2018-03-19T12:02:14.625Z,8.75
2018-03-19T12:04:42.165Z,10.35
2018-03-19T12:07:09.680Z,8.93
2018-03-19T12:09:37.198Z,9.02
2018-03-19T12:12:04.704Z,10.70
2018-03-19T12:14:32.215Z,9.25
2018-03-19T12:16:59.761Z,10.10
2018-03-19T12:19:27.108Z,9.63
2018-03-19T12:21:54.637Z,10.55
2018-03-19T12:24:22.161Z,10.25
2018-03-19T12:26:49.676Z,9.98
2018-03-19T12:29:17.199Z,10.50
2018-03-19T12:31:44.715Z,9.88
2018-03-19T12:34:12.233Z,10.25
2018-03-19T12:36:39.752Z,10.00
2018-03-19T12:39:07.275Z,9.65
2018-03-19T12:41:34.792Z,10.52
2018-03-19T12:44:02.310Z,9.73
2018-03-19T12:46:29.820Z,10.30
2018-03-19T12:48:57.335Z,9.25
2018-03-19T12:51:30.808Z,11.40
2018-03-19T12:53:58.341Z,12.20
2018-03-19T12:56:25.832Z,9.68
2018-03-19T12:58:53.753Z,10.05
2018-03-19T13:01:21.273Z,9.80
2018-03-19T13:03:49.028Z,10.23
2018-03-19T13:06:16.555Z,10.55
2018-03-19T13:08:44.259Z,10.40
2018-03-19T13:11:11.765Z,9.50
2018-03-19T13:13:39.309Z,8.98
2018-03-19T13:16:07.719Z,10.70
2018-03-19T13:18:35.282Z,9.43
2018-03-19T13:21:02.638Z,11.20
2018-03-19T13:23:30.161Z,11.20
2018-03-19T13:25:57.694Z,12.98
2018-03-19T13:28:25.196Z,10.23
2018-03-19T13:30:52.724Z,13.57
2018-03-19T13:33:20.227Z,17.58
2018-03-19T13:35:47.784Z,10.25
2018-03-19T13:38:15.298Z,12.90
2018-03-19T13:40:42.821Z,9.68
2018-03-19T13:43:10.338Z,11.27
2018-03-19T13:45:38.053Z,9.80
2018-03-19T13:48:05.574Z,11.77
2018-03-19T13:50:33.094Z,10.85
2018-03-19T13:53:00.608Z,11.38
2018-03-19T13:55:28.121Z,12.02
2018-03-19T13:57:55.640Z,11.75
2018-03-19T14:00:23.151Z,10.05
2018-03-19T14:02:51.049Z,11.15
2018-03-19T14:05:18.570Z,10.73
2018-03-19T14:07:46.085Z,10.10
2018-03-19T14:10:13.622Z,10.73
2018-03-19T14:12:41.149Z,12.40
2018-03-19T14:15:09.002Z,11.07
2018-03-19T14:17:36.536Z,14.02
2018-03-19T14:20:03.729Z,13.77
2018-03-19T14:22:31.410Z,14.23
2018-03-19T14:24:58.925Z,11.40
2018-03-19T14:27:26.448Z,12.85
2018-03-19T14:29:53.960Z,15.68
2018-03-19T14:32:21.493Z,17.83
2018-03-19T14:34:49.026Z,12.00
2018-03-19T14:37:16.533Z,13.23
2018-03-19T14:39:44.082Z,11.63
2018-03-19T14:42:11.598Z,16.48
2018-03-19T14:44:39.144Z,12.60
2018-03-19T14:47:06.736Z,13.00
2018-03-19T14:49:34.257Z,11.48
2018-03-19T14:52:01.795Z,12.98
2018-03-19T14:54:29.312Z,13.55
2018-03-19T14:56:57.036Z,12.63
2018-03-19T14:59:24.767Z,12.20
2018-03-19T15:01:52.311Z,12.30
2018-03-19T15:04:19.520Z,10.88
2018-03-19T15:06:47.057Z,12.35
2018-03-19T15:09:14.579Z,12.88
2018-03-19T15:11:42.097Z,13.10
2018-03-19T15:14:09.654Z,11.00
2018-03-19T15:16:37.323Z,12.27
2018-03-19T15:19:04.826Z,17.23
2018-03-19T15:21:32.349Z,12.63
2018-03-19T15:23:59.864Z,12.27
2018-03-19T15:26:27.392Z,13.65
2018-03-19T15:28:54.582Z,14.60
2018-03-19T15:31:22.185Z,11.20
2018-03-19T15:33:49.855Z,12.55
2018-03-19T15:36:17.384Z,13.85
2018-03-19T15:38:44.956Z,14.15
2018-03-19T15:41:12.471Z,16.08
2018-03-19T15:43:39.986Z,14.15
2018-03-19T15:46:07.554Z,14.23
2018-03-19T15:48:35.057Z,14.05
2018-03-19T15:51:02.852Z,15.25
2018-03-19T15:53:30.474Z,11.85
2018-03-19T15:55:58.000Z,15.20
2018-03-19T15:58:25.544Z,12.57
2018-03-19T16:00:53.087Z,13.75
2018-03-19T16:03:20.684Z,12.77
2018-03-19T16:05:48.201Z,13.48
2018-03-19T16:08:15.745Z,12.98
2018-03-19T16:10:43.267Z,12.82
2018-03-19T16:13:10.802Z,11.98
2018-03-19T16:15:38.313Z,14.70
2018-03-19T16:18:05.844Z,13.82
2018-03-19T16:20:33.390Z,14.68
2018-03-19T16:23:00.926Z,14.20
2018-03-19T16:25:28.454Z,14.00
2018-03-19T16:27:56.019Z,13.70
2018-03-19T16:30:23.605Z,12.80
2018-03-19T16:32:51.187Z,13.00
2018-03-19T16:35:18.939Z,14.18
2018-03-19T16:37:46.507Z,13.13
2018-03-19T16:40:14.472Z,13.30
2018-03-19T16:42:41.997Z,14.32
2018-03-19T16:45:11.834Z,14.82
2018-03-19T16:47:39.366Z,12.95
2018-03-19T16:50:07.287Z,15.85
2018-03-19T16:52:34.848Z,13.68
2018-03-19T16:55:02.369Z,12.77
2018-03-19T16:57:29.893Z,12.27
2018-03-19T16:59:57.413Z,13.62
2018-03-19T17:02:25.265Z,13.05
2018-03-19T17:04:52.795Z,14.10
2018-03-19T17:07:20.330Z,13.95
2018-03-19T17:09:47.870Z,19.00
2018-03-19T17:12:15.397Z,13.43
2018-03-19T17:14:42.972Z,15.23
2018-03-19T17:17:10.498Z,15.32
2018-03-19T17:19:38.005Z,13.50
2018-03-19T17:22:05.521Z,14.68
2018-03-19T17:24:33.055Z,16.73
2018-03-19T17:27:01.256Z,16.55
2018-03-19T17:29:28.774Z,13.13
2018-03-19T17:31:56.317Z,15.45
2018-03-19T17:34:23.885Z,15.77
2018-03-19T17:36:51.400Z,14.52
2018-03-19T17:39:18.924Z,14.10
2018-03-19T17:41:46.450Z,14.52
2018-03-19T17:44:13.965Z,15.68
2018-03-19T17:46:41.741Z,16.35
2018-03-19T17:49:09.259Z,16.17
2018-03-19T17:51:36.797Z,14.40
2018-03-19T17:54:04.374Z,15.32
2018-03-19T17:56:32.048Z,16.92
2018-03-19T17:58:59.569Z,14.35
2018-03-19T18:01:27.127Z,15.80
2018-03-19T18:03:54.668Z,15.07
2018-03-19T18:06:22.568Z,14.18
2018-03-19T18:08:50.100Z,15.05
2018-03-19T18:11:17.618Z,14.87
2018-03-19T18:13:45.229Z,14.20
2018-03-19T18:16:12.809Z,15.27
2018-03-19T18:18:41.237Z,15.18
2018-03-19T18:21:08.782Z,15.65
2018-03-19T18:23:36.305Z,15.05
2018-03-19T18:26:03.547Z,14.55
2018-03-19T18:28:31.088Z,20.33
2018-03-19T18:30:58.605Z,17.37
2018-03-19T18:33:26.229Z,16.15
2018-03-19T18:35:53.762Z,17.83
2018-03-19T18:38:21.298Z,17.08
2018-03-19T18:40:48.824Z,15.70
2018-03-19T18:43:18.241Z,18.17
2018-03-19T18:45:45.838Z,17.45
2018-03-19T18:48:13.362Z,15.98
2018-03-19T18:50:40.894Z,16.92
2018-03-19T18:53:08.423Z,16.40
2018-03-19T18:55:35.942Z,16.80
2018-03-19T18:58:03.499Z,17.17
2018-03-19T19:00:31.029Z,18.02
2018-03-19T19:02:58.546Z,19.60
2018-03-19T19:05:27.474Z,18.10
2018-03-19T19:07:55.010Z,17.70
2018-03-19T19:10:22.550Z,17.35
2018-03-19T19:12:50.453Z,18.33
2018-03-19T19:15:24.030Z,19.00
2018-03-19T19:17:51.965Z,20.98
2018-03-19T19:20:20.199Z,18.12
2018-03-19T19:22:47.801Z,16.58
2018-03-19T19:25:15.321Z,17.83
2018-03-19T19:27:44.033Z,18.30
2018-03-19T19:30:11.557Z,19.23
2018-03-19T19:32:39.169Z,18.33
2018-03-19T19:35:09.589Z,20.00
2018-03-19T19:37:38.165Z,17.62
2018-03-19T19:40:05.884Z,19.02
2018-03-19T19:42:33.664Z,21.05
2018-03-19T19:45:01.276Z,18.58
2018-03-19T19:47:28.785Z,21.33
2018-03-19T19:49:56.320Z,21.48
2018-03-19T19:52:24.822Z,21.62
2018-03-19T19:54:52.496Z,26.05
2018-03-19T19:57:20.031Z,22.20
2018-03-19T19:59:47.594Z,22.15
2018-03-19T20:02:15.136Z,21.08
2018-03-19T20:04:43.282Z,21.80
2018-03-19T20:07:10.833Z,19.73
2018-03-19T20:09:38.631Z,23.08
2018-03-19T20:12:06.151Z,22.85
2018-03-19T20:14:33.666Z,23.02
2018-03-19T20:17:01.225Z,22.73
2018-03-19T20:19:28.769Z,22.37
2018-03-19T20:21:56.281Z,22.62
2018-03-19T20:24:23.805Z,23.10
2018-03-19T20:26:51.394Z,21.45
2018-03-19T20:29:18.900Z,20.10
2018-03-19T20:31:46.749Z,22.42
2018-03-19T20:34:14.271Z,21.50
2018-03-19T20:36:41.781Z,20.42
2018-03-19T20:39:09.452Z,22.17
2018-03-19T20:41:36.992Z,20.10
2018-03-19T20:44:04.510Z,23.15
2018-03-19T20:46:32.035Z,21.10
2018-03-19T20:48:59.583Z,22.20
2018-03-19T20:51:27.174Z,22.50
2018-03-19T20:53:54.703Z,21.33
2018-03-19T20:56:22.238Z,20.30
2018-03-19T20:58:49.766Z,21.75
2018-03-19T21:01:17.288Z,23.85
2018-03-19T21:03:44.848Z,22.25
2018-03-19T21:06:12.374Z,21.17
2018-03-19T21:08:39.926Z,20.77
2018-03-19T21:11:07.434Z,21.12
2018-03-19T21:13:34.961Z,20.23
2018-03-19T21:16:03.212Z,19.27
2018-03-19T21:18:30.736Z,21.80
2018-03-19T21:20:58.265Z,17.92
2018-03-19T21:23:25.788Z,20.50
2018-03-19T21:25:53.320Z,20.15
2018-03-19T21:28:20.879Z,19.48
2018-03-19T21:30:48.568Z,18.85
2018-03-19T21:33:16.174Z,16.95
2018-03-19T21:35:43.689Z,17.67
2018-03-19T21:38:11.188Z,16.95
2018-03-19T21:40:38.712Z,18.15
2018-03-19T21:43:06.223Z,16.50
2018-03-19T21:45:33.769Z,17.23
2018-03-19T21:48:01.306Z,16.45
2018-03-19T21:50:28.821Z,18.05
2018-03-19T21:52:56.340Z,16.35
2018-03-19T21:55:24.516Z,17.65
2018-03-19T21:57:52.200Z,17.58
2018-03-19T22:00:19.739Z,17.58
2018-03-19T22:02:47.289Z,17.85
2018-03-19T22:05:17.649Z,17.48
2018-03-19T22:07:45.145Z,16.17
2018-03-19T22:10:17.644Z,17.50
2018-03-19T22:12:45.173Z,17.52
2018-03-19T22:15:12.789Z,18.67
2018-03-19T22:17:40.302Z,18.58
2018-03-19T22:20:15.944Z,18.70
2018-03-19T22:22:43.464Z,18.65
2018-03-19T22:25:18.544Z,18.10
2018-03-19T22:27:46.073Z,19.15
2018-03-19T22:30:13.593Z,19.58
2018-03-19T22:32:41.100Z,19.73
2018-03-19T22:35:14.254Z,17.35
2018-03-19T22:37:41.773Z,17.40
2018-03-19T22:40:15.209Z,19.17
2018-03-19T22:42:42.733Z,18.23
2018-03-19T22:45:16.604Z,19.25
2018-03-19T22:47:44.112Z,18.65
2018-03-19T22:50:16.548Z,16.10
2018-03-19T22:52:44.130Z,17.90
2018-03-19T22:55:16.988Z,20.23
2018-03-19T22:57:44.502Z,16.58
2018-03-19T23:00:13.426Z,16.85
2018-03-19T23:02:41.036Z,17.10
2018-03-19T23:05:12.609Z,17.60
2018-03-19T23:07:40.125Z,17.60
2018-03-19T23:12:41.383Z,17.55
2018-03-19T23:15:14.310Z,16.48
2018-03-19T23:17:41.881Z,17.70
2018-03-19T23:20:13.114Z,16.90
2018-03-19T23:22:41.259Z,18.08
2018-03-19T23:25:18.708Z,18.10
2018-03-19T23:27:46.270Z,17.02
2018-03-19T23:30:14.266Z,17.60
2018-03-19T23:32:43.041Z,17.25
2018-03-19T23:35:10.856Z,18.52
2018-03-19T23:37:38.500Z,18.23
2018-03-19T23:40:06.069Z,18.90
2018-03-19T23:42:34.501Z,16.70
2018-03-19T23:45:02.035Z,17.35
2018-03-19T23:47:29.549Z,17.75
2018-03-19T23:49:57.101Z,17.30
2018-03-19T23:52:24.609Z,18.55
2018-03-19T23:54:52.140Z,18.37
2018-03-19T23:57:19.641Z,18.20
2018-03-19T23:59:47.181Z,18.80
